sensor_id;sensor_type;location;lat;lon;timestamp;P1;durP1;ratioP1;P2;durP2;ratioP2
24445;SDS011;13347;50.984;5.822;2022-10-17T00:00:49;90.68;;;84.97;;
24445;SDS011;13347;50.984;5.822;2022-10-17T00:03:16;97.00;;;90.72;;
24445;SDS011;13347;50.984;5.822;2022-10-17T00:05:44;80.03;;;74.53;;
24445;SDS011;13347;50.984;5.822;2022-10-17T00:08:13;68.03;;;63.20;;
24445;SDS011;13347;50.984;5.822;2022-10-17T00:10:43;53.30;;;48.85;;
24445;SDS011;13347;50.984;5.822;2022-10-17T00:13:11;53.13;;;48.80;;
24445;SDS011;13347;50.984;5.822;2022-10-17T00:15:41;56.00;;;51.58;;
24445;SDS011;13347;50.984;5.822;2022-10-17T00:18:09;48.63;;;44.53;;
24445;SDS011;13347;50.984;5.822;2022-10-17T00:20:36;66.55;;;61.55;;
24445;SDS011;13347;50.984;5.822;2022-10-17T00:23:03;56.40;;;51.35;;
24445;SDS011;13347;50.984;5.822;2022-10-17T00:25:30;68.10;;;63.10;;
24445;SDS011;13347;50.984;5.822;2022-10-17T00:27:59;50.40;;;46.15;;
24445;SDS011;13347;50.984;5.822;2022-10-17T00:30:26;138.05;;;129.50;;
24445;SDS011;13347;50.984;5.822;2022-10-17T00:32:53;140.70;;;131.95;;
24445;SDS011;13347;50.984;5.822;2022-10-17T00:35:21;140.57;;;132.35;;
24445;SDS011;13347;50.984;5.822;2022-10-17T00:37:48;112.03;;;105.07;;
24445;SDS011;13347;50.984;5.822;2022-10-17T00:40:15;118.85;;;111.20;;
24445;SDS011;13347;50.984;5.822;2022-10-17T00:42:43;93.78;;;87.15;;
24445;SDS011;13347;50.984;5.822;2022-10-17T00:45:16;96.95;;;90.55;;
24445;SDS011;13347;50.984;5.822;2022-10-17T00:47:47;91.18;;;85.13;;
24445;SDS011;13347;50.984;5.822;2022-10-17T00:50:20;73.18;;;68.05;;
24445;SDS011;13347;50.984;5.822;2022-10-17T00:52:48;90.32;;;84.63;;
24445;SDS011;13347;50.984;5.822;2022-10-17T00:55:17;77.53;;;72.28;;
24445;SDS011;13347;50.984;5.822;2022-10-17T00:57:48;152.20;;;143.50;;
24445;SDS011;13347;50.984;5.822;2022-10-17T01:00:18;114.35;;;107.47;;
24445;SDS011;13347;50.984;5.822;2022-10-17T01:02:46;239.20;;;225.65;;
24445;SDS011;13347;50.984;5.822;2022-10-17T01:05:14;119.05;;;112.32;;
24445;SDS011;13347;50.984;5.822;2022-10-17T01:07:42;111.22;;;104.85;;
24445;SDS011;13347;50.984;5.822;2022-10-17T01:10:10;161.25;;;152.70;;
24445;SDS011;13347;50.984;5.822;2022-10-17T01:12:51;112.07;;;106.03;;
24445;SDS011;13347;50.984;5.822;2022-10-17T01:15:31;98.68;;;93.07;;
24445;SDS011;13347;50.984;5.822;2022-10-17T01:18:09;88.13;;;83.10;;
24445;SDS011;13347;50.984;5.822;2022-10-17T01:20:50;98.00;;;92.78;;
24445;SDS011;13347;50.984;5.822;2022-10-17T01:23:44;391.35;;;371.23;;
24445;SDS011;13347;50.984;5.822;2022-10-17T01:26:33;320.52;;;304.60;;
24445;SDS011;13347;50.984;5.822;2022-10-17T01:29:17;330.63;;;314.40;;
24445;SDS011;13347;50.984;5.822;2022-10-17T01:31:58;103.35;;;98.35;;
24445;SDS011;13347;50.984;5.822;2022-10-17T01:34:30;22.80;;;21.38;;
24445;SDS011;13347;50.984;5.822;2022-10-17T01:37:01;14.30;;;13.23;;
24445;SDS011;13347;50.984;5.822;2022-10-17T01:39:34;15.85;;;14.70;;
24445;SDS011;13347;50.984;5.822;2022-10-17T01:42:09;21.35;;;20.15;;
24445;SDS011;13347;50.984;5.822;2022-10-17T01:44:44;13.77;;;12.98;;
24445;SDS011;13347;50.984;5.822;2022-10-17T01:47:18;15.65;;;14.75;;
24445;SDS011;13347;50.984;5.822;2022-10-17T01:49:48;14.20;;;13.40;;
24445;SDS011;13347;50.984;5.822;2022-10-17T01:52:19;17.25;;;16.25;;
24445;SDS011;13347;50.984;5.822;2022-10-17T01:54:50;28.08;;;26.33;;
24445;SDS011;13347;50.984;5.822;2022-10-17T01:57:22;20.40;;;19.13;;
24445;SDS011;13347;50.984;5.822;2022-10-17T01:59:54;40.65;;;38.58;;
24445;SDS011;13347;50.984;5.822;2022-10-17T02:02:24;37.55;;;35.55;;
24445;SDS011;13347;50.984;5.822;2022-10-17T02:04:52;77.82;;;74.07;;
24445;SDS011;13347;50.984;5.822;2022-10-17T02:07:22;181.57;;;173.27;;
24445;SDS011;13347;50.984;5.822;2022-10-17T02:09:49;138.13;;;132.00;;
24445;SDS011;13347;50.984;5.822;2022-10-17T02:15:14;37.67;;;35.88;;
24445;SDS011;13347;50.984;5.822;2022-10-17T02:18:07;31.33;;;29.63;;
24445;SDS011;13347;50.984;5.822;2022-10-17T02:20:49;58.25;;;55.25;;
24445;SDS011;13347;50.984;5.822;2022-10-17T02:23:23;29.13;;;27.67;;
24445;SDS011;13347;50.984;5.822;2022-10-17T02:26:00;44.13;;;42.00;;
24445;SDS011;13347;50.984;5.822;2022-10-17T02:28:35;47.88;;;45.38;;
24445;SDS011;13347;50.984;5.822;2022-10-17T02:33:40;23.73;;;22.42;;
24445;SDS011;13347;50.984;5.822;2022-10-17T02:36:10;61.92;;;58.85;;
24445;SDS011;13347;50.984;5.822;2022-10-17T02:38:40;122.25;;;116.65;;
24445;SDS011;13347;50.984;5.822;2022-10-17T02:41:09;135.93;;;129.77;;
24445;SDS011;13347;50.984;5.822;2022-10-17T02:43:40;140.05;;;133.63;;
24445;SDS011;13347;50.984;5.822;2022-10-17T02:46:09;76.53;;;72.93;;
24445;SDS011;13347;50.984;5.822;2022-10-17T02:48:46;107.57;;;102.82;;
24445;SDS011;13347;50.984;5.822;2022-10-17T02:51:18;116.57;;;111.30;;
24445;SDS011;13347;50.984;5.822;2022-10-17T02:53:54;122.38;;;116.68;;
24445;SDS011;13347;50.984;5.822;2022-10-17T02:56:26;126.78;;;121.05;;
24445;SDS011;13347;50.984;5.822;2022-10-17T02:58:56;130.50;;;124.50;;
24445;SDS011;13347;50.984;5.822;2022-10-17T03:01:26;88.82;;;84.47;;
24445;SDS011;13347;50.984;5.822;2022-10-17T03:04:04;274.75;;;261.40;;
24445;SDS011;13347;50.984;5.822;2022-10-17T03:06:33;249.32;;;238.15;;
24445;SDS011;13347;50.984;5.822;2022-10-17T03:09:00;160.70;;;152.98;;
24445;SDS011;13347;50.984;5.822;2022-10-17T03:11:28;117.72;;;112.32;;
24445;SDS011;13347;50.984;5.822;2022-10-17T03:13:55;88.47;;;84.40;;
24445;SDS011;13347;50.984;5.822;2022-10-17T03:16:22;105.55;;;100.68;;
24445;SDS011;13347;50.984;5.822;2022-10-17T03:18:50;120.30;;;114.63;;
24445;SDS011;13347;50.984;5.822;2022-10-17T03:21:18;217.30;;;207.32;;
24445;SDS011;13347;50.984;5.822;2022-10-17T03:23:45;121.93;;;116.22;;
24445;SDS011;13347;50.984;5.822;2022-10-17T03:26:12;74.85;;;71.20;;
24445;SDS011;13347;50.984;5.822;2022-10-17T03:28:39;155.77;;;148.18;;
24445;SDS011;13347;50.984;5.822;2022-10-17T03:31:07;113.78;;;107.95;;
24445;SDS011;13347;50.984;5.822;2022-10-17T03:33:35;275.20;;;259.38;;
24445;SDS011;13347;50.984;5.822;2022-10-17T03:36:06;184.77;;;174.63;;
24445;SDS011;13347;50.984;5.822;2022-10-17T03:38:35;217.15;;;203.30;;
24445;SDS011;13347;50.984;5.822;2022-10-17T03:41:02;137.15;;;129.02;;
24445;SDS011;13347;50.984;5.822;2022-10-17T03:43:30;76.75;;;72.68;;
24445;SDS011;13347;50.984;5.822;2022-10-17T03:45:57;135.57;;;127.57;;
24445;SDS011;13347;50.984;5.822;2022-10-17T03:48:25;139.73;;;131.45;;
24445;SDS011;13347;50.984;5.822;2022-10-17T03:50:57;232.85;;;219.63;;
24445;SDS011;13347;50.984;5.822;2022-10-17T03:53:25;261.63;;;245.60;;
24445;SDS011;13347;50.984;5.822;2022-10-17T03:55:54;101.45;;;95.85;;
24445;SDS011;13347;50.984;5.822;2022-10-17T03:58:22;167.60;;;157.52;;
24445;SDS011;13347;50.984;5.822;2022-10-17T04:00:49;309.77;;;291.20;;
24445;SDS011;13347;50.984;5.822;2022-10-17T04:03:16;341.58;;;320.98;;
24445;SDS011;13347;50.984;5.822;2022-10-17T04:05:44;476.90;;;444.27;;
24445;SDS011;13347;50.984;5.822;2022-10-17T04:08:11;311.27;;;291.20;;
24445;SDS011;13347;50.984;5.822;2022-10-17T04:10:38;333.50;;;313.02;;
24445;SDS011;13347;50.984;5.822;2022-10-17T04:13:07;429.90;;;403.33;;
24445;SDS011;13347;50.984;5.822;2022-10-17T04:15:34;531.63;;;496.25;;
24445;SDS011;13347;50.984;5.822;2022-10-17T04:18:01;383.33;;;359.95;;
24445;SDS011;13347;50.984;5.822;2022-10-17T04:20:28;330.00;;;310.63;;
24445;SDS011;13347;50.984;5.822;2022-10-17T04:22:55;346.45;;;325.77;;
24445;SDS011;13347;50.984;5.822;2022-10-17T04:25:22;532.75;;;499.13;;
24445;SDS011;13347;50.984;5.822;2022-10-17T04:27:49;597.80;;;560.13;;
24445;SDS011;13347;50.984;5.822;2022-10-17T04:30:18;625.15;;;586.20;;
24445;SDS011;13347;50.984;5.822;2022-10-17T04:32:45;658.92;;;617.38;;
24445;SDS011;13347;50.984;5.822;2022-10-17T04:35:12;630.10;;;591.95;;
24445;SDS011;13347;50.984;5.822;2022-10-17T04:37:39;661.75;;;621.85;;
24445;SDS011;13347;50.984;5.822;2022-10-17T04:40:07;719.55;;;673.33;;
24445;SDS011;13347;50.984;5.822;2022-10-17T04:42:35;675.10;;;634.35;;
24445;SDS011;13347;50.984;5.822;2022-10-17T04:45:02;681.95;;;640.58;;
24445;SDS011;13347;50.984;5.822;2022-10-17T04:47:32;704.35;;;657.40;;
24445;SDS011;13347;50.984;5.822;2022-10-17T04:49:59;656.40;;;617.80;;
24445;SDS011;13347;50.984;5.822;2022-10-17T04:52:26;677.33;;;636.42;;
24445;SDS011;13347;50.984;5.822;2022-10-17T04:54:53;699.33;;;652.17;;
24445;SDS011;13347;50.984;5.822;2022-10-17T04:57:20;738.72;;;690.25;;
24445;SDS011;13347;50.984;5.822;2022-10-17T04:59:48;729.25;;;676.97;;
24445;SDS011;13347;50.984;5.822;2022-10-17T05:02:15;670.47;;;629.58;;
24445;SDS011;13347;50.984;5.822;2022-10-17T05:04:43;679.42;;;637.08;;
24445;SDS011;13347;50.984;5.822;2022-10-17T05:07:11;701.85;;;656.08;;
24445;SDS011;13347;50.984;5.822;2022-10-17T05:09:38;683.75;;;638.70;;
24445;SDS011;13347;50.984;5.822;2022-10-17T05:12:05;673.08;;;627.42;;
24445;SDS011;13347;50.984;5.822;2022-10-17T05:14:32;728.50;;;682.28;;
24445;SDS011;13347;50.984;5.822;2022-10-17T05:16:59;767.80;;;710.97;;
24445;SDS011;13347;50.984;5.822;2022-10-17T05:19:26;728.88;;;681.88;;
24445;SDS011;13347;50.984;5.822;2022-10-17T05:21:55;735.85;;;688.42;;
24445;SDS011;13347;50.984;5.822;2022-10-17T05:24:22;734.83;;;686.72;;
24445;SDS011;13347;50.984;5.822;2022-10-17T05:26:50;711.72;;;664.75;;
24445;SDS011;13347;50.984;5.822;2022-10-17T05:29:17;717.25;;;671.40;;
24445;SDS011;13347;50.984;5.822;2022-10-17T05:31:44;712.63;;;666.45;;
24445;SDS011;13347;50.984;5.822;2022-10-17T05:34:11;742.03;;;694.03;;
24445;SDS011;13347;50.984;5.822;2022-10-17T05:36:39;712.67;;;668.83;;
24445;SDS011;13347;50.984;5.822;2022-10-17T05:39:07;710.83;;;663.60;;
24445;SDS011;13347;50.984;5.822;2022-10-17T05:41:34;642.45;;;601.80;;
24445;SDS011;13347;50.984;5.822;2022-10-17T05:44:01;607.97;;;569.60;;
24445;SDS011;13347;50.984;5.822;2022-10-17T05:46:29;609.10;;;570.33;;
24445;SDS011;13347;50.984;5.822;2022-10-17T05:48:56;693.88;;;647.75;;
24445;SDS011;13347;50.984;5.822;2022-10-17T05:51:23;603.70;;;567.25;;
24445;SDS011;13347;50.984;5.822;2022-10-17T05:53:50;579.50;;;546.13;;
24445;SDS011;13347;50.984;5.822;2022-10-17T05:56:19;474.00;;;445.42;;
24445;SDS011;13347;50.984;5.822;2022-10-17T05:58:46;578.92;;;543.28;;
24445;SDS011;13347;50.984;5.822;2022-10-17T06:01:13;562.25;;;526.25;;
24445;SDS011;13347;50.984;5.822;2022-10-17T06:03:40;508.42;;;479.08;;
24445;SDS011;13347;50.984;5.822;2022-10-17T06:06:08;454.50;;;425.95;;
24445;SDS011;13347;50.984;5.822;2022-10-17T06:08:37;529.63;;;493.10;;
24445;SDS011;13347;50.984;5.822;2022-10-17T06:11:05;422.45;;;397.88;;
24445;SDS011;13347;50.984;5.822;2022-10-17T06:13:33;385.60;;;361.23;;
24445;SDS011;13347;50.984;5.822;2022-10-17T06:16:00;581.00;;;540.90;;
24445;SDS011;13347;50.984;5.822;2022-10-17T06:18:28;388.13;;;364.60;;
24445;SDS011;13347;50.984;5.822;2022-10-17T06:21:00;364.55;;;343.52;;
24445;SDS011;13347;50.984;5.822;2022-10-17T06:23:28;375.42;;;353.98;;
24445;SDS011;13347;50.984;5.822;2022-10-17T06:25:57;458.70;;;431.90;;
24445;SDS011;13347;50.984;5.822;2022-10-17T06:28:24;527.10;;;491.80;;
24445;SDS011;13347;50.984;5.822;2022-10-17T06:30:53;371.88;;;348.65;;
24445;SDS011;13347;50.984;5.822;2022-10-17T06:33:20;377.77;;;354.88;;
24445;SDS011;13347;50.984;5.822;2022-10-17T06:35:50;485.85;;;455.67;;
24445;SDS011;13347;50.984;5.822;2022-10-17T06:38:18;291.05;;;274.00;;
24445;SDS011;13347;50.984;5.822;2022-10-17T06:40:45;277.35;;;258.70;;
24445;SDS011;13347;50.984;5.822;2022-10-17T06:43:13;283.70;;;268.20;;
24445;SDS011;13347;50.984;5.822;2022-10-17T06:45:40;342.30;;;317.75;;
24445;SDS011;13347;50.984;5.822;2022-10-17T06:48:09;244.30;;;228.15;;
24445;SDS011;13347;50.984;5.822;2022-10-17T06:50:36;215.15;;;202.15;;
24445;SDS011;13347;50.984;5.822;2022-10-17T06:53:03;172.77;;;162.40;;
24445;SDS011;13347;50.984;5.822;2022-10-17T06:55:31;279.25;;;263.00;;
24445;SDS011;13347;50.984;5.822;2022-10-17T06:57:58;437.13;;;406.13;;
24445;SDS011;13347;50.984;5.822;2022-10-17T07:00:25;143.60;;;136.27;;
24445;SDS011;13347;50.984;5.822;2022-10-17T07:02:52;129.35;;;122.82;;
24445;SDS011;13347;50.984;5.822;2022-10-17T07:05:21;292.42;;;275.08;;
24445;SDS011;13347;50.984;5.822;2022-10-17T07:07:48;389.63;;;364.17;;
24445;SDS011;13347;50.984;5.822;2022-10-17T07:10:15;284.45;;;268.80;;
24445;SDS011;13347;50.984;5.822;2022-10-17T07:12:42;384.40;;;358.70;;
24445;SDS011;13347;50.984;5.822;2022-10-17T07:15:10;239.80;;;227.77;;
24445;SDS011;13347;50.984;5.822;2022-10-17T07:17:37;200.85;;;191.43;;
24445;SDS011;13347;50.984;5.822;2022-10-17T07:20:04;310.50;;;293.52;;
24445;SDS011;13347;50.984;5.822;2022-10-17T07:22:34;408.73;;;386.30;;
24445;SDS011;13347;50.984;5.822;2022-10-17T07:25:01;392.20;;;369.33;;
24445;SDS011;13347;50.984;5.822;2022-10-17T07:27:28;544.75;;;510.70;;
24445;SDS011;13347;50.984;5.822;2022-10-17T07:29:55;459.48;;;434.30;;
24445;SDS011;13347;50.984;5.822;2022-10-17T07:32:23;571.65;;;540.72;;
24445;SDS011;13347;50.984;5.822;2022-10-17T07:34:50;578.22;;;546.80;;
24445;SDS011;13347;50.984;5.822;2022-10-17T07:37:17;668.80;;;627.13;;
24445;SDS011;13347;50.984;5.822;2022-10-17T07:39:45;617.72;;;573.30;;
24445;SDS011;13347;50.984;5.822;2022-10-17T07:42:13;609.88;;;567.10;;
24445;SDS011;13347;50.984;5.822;2022-10-17T07:44:40;594.67;;;552.88;;
24445;SDS011;13347;50.984;5.822;2022-10-17T07:47:08;550.45;;;520.58;;
24445;SDS011;13347;50.984;5.822;2022-10-17T07:49:35;679.70;;;636.50;;
24445;SDS011;13347;50.984;5.822;2022-10-17T07:52:08;592.60;;;552.42;;
24445;SDS011;13347;50.984;5.822;2022-10-17T07:54:36;553.92;;;513.72;;
24445;SDS011;13347;50.984;5.822;2022-10-17T07:57:04;559.85;;;527.33;;
24445;SDS011;13347;50.984;5.822;2022-10-17T07:59:32;400.60;;;377.55;;
24445;SDS011;13347;50.984;5.822;2022-10-17T08:02:00;199.88;;;189.07;;
24445;SDS011;13347;50.984;5.822;2022-10-17T08:04:27;254.57;;;240.20;;
24445;SDS011;13347;50.984;5.822;2022-10-17T08:06:54;212.60;;;201.65;;
24445;SDS011;13347;50.984;5.822;2022-10-17T08:09:22;506.35;;;458.65;;
24445;SDS011;13347;50.984;5.822;2022-10-17T08:11:49;163.02;;;154.57;;
24445;SDS011;13347;50.984;5.822;2022-10-17T08:14:21;265.00;;;250.27;;
24445;SDS011;13347;50.984;5.822;2022-10-17T08:16:48;446.55;;;414.13;;
24445;SDS011;13347;50.984;5.822;2022-10-17T08:19:15;506.27;;;472.58;;
24445;SDS011;13347;50.984;5.822;2022-10-17T08:21:42;319.48;;;299.55;;
24445;SDS011;13347;50.984;5.822;2022-10-17T08:24:11;339.27;;;319.17;;
24445;SDS011;13347;50.984;5.822;2022-10-17T08:26:38;542.22;;;503.42;;
24445;SDS011;13347;50.984;5.822;2022-10-17T08:29:05;289.15;;;272.38;;
24445;SDS011;13347;50.984;5.822;2022-10-17T08:31:39;110.43;;;105.43;;
24445;SDS011;13347;50.984;5.822;2022-10-17T08:34:06;165.93;;;157.30;;
24445;SDS011;13347;50.984;5.822;2022-10-17T08:36:33;130.35;;;123.90;;
24445;SDS011;13347;50.984;5.822;2022-10-17T08:39:00;246.18;;;230.98;;
24445;SDS011;13347;50.984;5.822;2022-10-17T08:41:33;121.47;;;115.97;;
24445;SDS011;13347;50.984;5.822;2022-10-17T08:44:24;266.13;;;250.43;;
24445;SDS011;13347;50.984;5.822;2022-10-17T08:47:00;350.70;;;328.08;;
24445;SDS011;13347;50.984;5.822;2022-10-17T08:49:33;166.88;;;158.68;;
24445;SDS011;13347;50.984;5.822;2022-10-17T08:52:13;267.02;;;251.85;;
24445;SDS011;13347;50.984;5.822;2022-10-17T08:54:44;106.25;;;101.07;;
24445;SDS011;13347;50.984;5.822;2022-10-17T08:57:13;176.70;;;167.75;;
24445;SDS011;13347;50.984;5.822;2022-10-17T08:59:42;119.70;;;114.15;;
24445;SDS011;13347;50.984;5.822;2022-10-17T09:02:20;177.88;;;168.27;;
24445;SDS011;13347;50.984;5.822;2022-10-17T09:05:06;378.52;;;347.60;;
24445;SDS011;13347;50.984;5.822;2022-10-17T09:07:51;147.40;;;139.88;;
24445;SDS011;13347;50.984;5.822;2022-10-17T09:10:26;156.10;;;148.93;;
24445;SDS011;13347;50.984;5.822;2022-10-17T09:13:05;286.58;;;270.50;;
24445;SDS011;13347;50.984;5.822;2022-10-17T09:15:42;144.25;;;137.35;;
24445;SDS011;13347;50.984;5.822;2022-10-17T09:18:21;131.77;;;125.28;;
24445;SDS011;13347;50.984;5.822;2022-10-17T09:20:53;182.35;;;173.30;;
24445;SDS011;13347;50.984;5.822;2022-10-17T09:23:24;139.43;;;133.02;;
24445;SDS011;13347;50.984;5.822;2022-10-17T09:25:58;165.15;;;156.75;;
24445;SDS011;13347;50.984;5.822;2022-10-17T09:28:27;208.52;;;197.27;;
24445;SDS011;13347;50.984;5.822;2022-10-17T09:30:58;167.23;;;157.85;;
24445;SDS011;13347;50.984;5.822;2022-10-17T09:33:31;179.20;;;170.18;;
24445;SDS011;13347;50.984;5.822;2022-10-17T09:36:04;197.80;;;186.65;;
24445;SDS011;13347;50.984;5.822;2022-10-17T09:38:37;207.80;;;196.95;;
24445;SDS011;13347;50.984;5.822;2022-10-17T09:41:10;128.60;;;122.53;;
24445;SDS011;13347;50.984;5.822;2022-10-17T09:43:42;140.82;;;134.10;;
24445;SDS011;13347;50.984;5.822;2022-10-17T09:46:10;135.45;;;128.70;;
24445;SDS011;13347;50.984;5.822;2022-10-17T09:48:53;184.70;;;174.88;;
24445;SDS011;13347;50.984;5.822;2022-10-17T09:51:25;143.90;;;137.45;;
24445;SDS011;13347;50.984;5.822;2022-10-17T09:53:54;133.10;;;126.72;;
24445;SDS011;13347;50.984;5.822;2022-10-17T09:56:25;192.63;;;181.73;;
24445;SDS011;13347;50.984;5.822;2022-10-17T09:58:54;154.27;;;147.05;;
24445;SDS011;13347;50.984;5.822;2022-10-17T10:01:23;180.20;;;171.90;;
24445;SDS011;13347;50.984;5.822;2022-10-17T10:04:09;174.05;;;165.73;;
24445;SDS011;13347;50.984;5.822;2022-10-17T10:06:37;139.70;;;132.95;;
24445;SDS011;13347;50.984;5.822;2022-10-17T10:09:06;252.77;;;239.05;;
24445;SDS011;13347;50.984;5.822;2022-10-17T10:11:47;246.10;;;232.25;;
24445;SDS011;13347;50.984;5.822;2022-10-17T10:14:19;211.45;;;201.27;;
24445;SDS011;13347;50.984;5.822;2022-10-17T10:16:48;191.98;;;182.50;;
24445;SDS011;13347;50.984;5.822;2022-10-17T10:19:25;108.13;;;103.07;;
24445;SDS011;13347;50.984;5.822;2022-10-17T10:21:55;240.77;;;229.88;;
24445;SDS011;13347;50.984;5.822;2022-10-17T10:24:24;233.50;;;222.25;;
24445;SDS011;13347;50.984;5.822;2022-10-17T10:26:52;158.70;;;151.27;;
24445;SDS011;13347;50.984;5.822;2022-10-17T10:29:26;276.90;;;259.70;;
24445;SDS011;13347;50.984;5.822;2022-10-17T10:31:57;382.13;;;360.08;;
24445;SDS011;13347;50.984;5.822;2022-10-17T10:34:35;314.58;;;296.33;;
24445;SDS011;13347;50.984;5.822;2022-10-17T10:37:15;488.77;;;456.98;;
24445;SDS011;13347;50.984;5.822;2022-10-17T10:39:45;623.80;;;579.60;;
24445;SDS011;13347;50.984;5.822;2022-10-17T10:42:22;536.83;;;501.70;;
24445;SDS011;13347;50.984;5.822;2022-10-17T10:44:53;588.95;;;553.95;;
24445;SDS011;13347;50.984;5.822;2022-10-17T10:47:24;456.10;;;429.63;;
24445;SDS011;13347;50.984;5.822;2022-10-17T10:50:06;454.95;;;429.45;;
24445;SDS011;13347;50.984;5.822;2022-10-17T10:52:49;309.63;;;293.70;;
24445;SDS011;13347;50.984;5.822;2022-10-17T10:57:51;316.55;;;300.70;;
24445;SDS011;13347;50.984;5.822;2022-10-17T11:00:23;300.13;;;285.35;;
24445;SDS011;13347;50.984;5.822;2022-10-17T11:02:55;247.18;;;234.38;;
24445;SDS011;13347;50.984;5.822;2022-10-17T11:05:38;304.80;;;286.45;;
24445;SDS011;13347;50.984;5.822;2022-10-17T11:08:12;306.20;;;290.75;;
24445;SDS011;13347;50.984;5.822;2022-10-17T11:10:58;294.52;;;278.85;;
24445;SDS011;13347;50.984;5.822;2022-10-17T11:13:33;289.48;;;275.05;;
24445;SDS011;13347;50.984;5.822;2022-10-17T11:16:11;250.05;;;237.35;;
24445;SDS011;13347;50.984;5.822;2022-10-17T11:18:46;350.20;;;330.42;;
24445;SDS011;13347;50.984;5.822;2022-10-17T11:21:18;349.48;;;330.98;;
24445;SDS011;13347;50.984;5.822;2022-10-17T11:23:55;537.85;;;499.77;;
24445;SDS011;13347;50.984;5.822;2022-10-17T11:26:26;506.23;;;475.92;;
24445;SDS011;13347;50.984;5.822;2022-10-17T11:28:56;415.73;;;392.17;;
24445;SDS011;13347;50.984;5.822;2022-10-17T11:31:24;562.58;;;523.30;;
24445;SDS011;13347;50.984;5.822;2022-10-17T11:33:56;428.38;;;401.95;;
24445;SDS011;13347;50.984;5.822;2022-10-17T11:36:29;528.90;;;496.02;;
24445;SDS011;13347;50.984;5.822;2022-10-17T11:38:58;482.55;;;452.10;;
24445;SDS011;13347;50.984;5.822;2022-10-17T11:41:31;453.05;;;426.17;;
24445;SDS011;13347;50.984;5.822;2022-10-17T11:44:11;615.90;;;572.38;;
24445;SDS011;13347;50.984;5.822;2022-10-17T11:46:42;547.50;;;511.92;;
24445;SDS011;13347;50.984;5.822;2022-10-17T11:49:11;519.45;;;488.35;;
24445;SDS011;13347;50.984;5.822;2022-10-17T11:51:44;532.15;;;498.48;;
24445;SDS011;13347;50.984;5.822;2022-10-17T11:54:15;398.52;;;375.73;;
24445;SDS011;13347;50.984;5.822;2022-10-17T11:56:48;482.98;;;444.92;;
24445;SDS011;13347;50.984;5.822;2022-10-17T11:59:38;370.17;;;345.73;;
24445;SDS011;13347;50.984;5.822;2022-10-17T12:02:17;222.43;;;209.38;;
24445;SDS011;13347;50.984;5.822;2022-10-17T12:04:55;187.38;;;177.27;;
24445;SDS011;13347;50.984;5.822;2022-10-17T12:07:33;626.42;;;571.83;;
24445;SDS011;13347;50.984;5.822;2022-10-17T12:10:28;299.98;;;281.55;;
24445;SDS011;13347;50.984;5.822;2022-10-17T12:22:11;239.82;;;227.60;;
24445;SDS011;13347;50.984;5.822;2022-10-17T12:24:53;144.90;;;137.82;;
24445;SDS011;13347;50.984;5.822;2022-10-17T12:27:33;333.55;;;312.02;;
24445;SDS011;13347;50.984;5.822;2022-10-17T12:30:03;168.00;;;159.40;;
24445;SDS011;13347;50.984;5.822;2022-10-17T12:32:52;136.18;;;129.45;;
24445;SDS011;13347;50.984;5.822;2022-10-17T12:35:25;318.95;;;301.98;;
24445;SDS011;13347;50.984;5.822;2022-10-17T12:38:01;242.93;;;230.27;;
24445;SDS011;13347;50.984;5.822;2022-10-17T12:40:50;157.48;;;150.23;;
24445;SDS011;13347;50.984;5.822;2022-10-17T12:46:04;303.42;;;287.95;;
24445;SDS011;13347;50.984;5.822;2022-10-17T12:51:29;548.15;;;516.88;;
24445;SDS011;13347;50.984;5.822;2022-10-17T12:54:37;502.58;;;470.25;;
24445;SDS011;13347;50.984;5.822;2022-10-17T12:57:14;128.13;;;122.20;;
24445;SDS011;13347;50.984;5.822;2022-10-17T12:59:46;358.30;;;336.10;;
24445;SDS011;13347;50.984;5.822;2022-10-17T13:02:16;144.80;;;137.95;;
24445;SDS011;13347;50.984;5.822;2022-10-17T13:04:46;120.68;;;115.30;;
24445;SDS011;13347;50.984;5.822;2022-10-17T13:07:17;123.25;;;117.47;;
24445;SDS011;13347;50.984;5.822;2022-10-17T13:09:46;152.10;;;144.85;;
24445;SDS011;13347;50.984;5.822;2022-10-17T13:12:19;164.50;;;157.00;;
24445;SDS011;13347;50.984;5.822;2022-10-17T13:14:51;163.27;;;155.90;;
24445;SDS011;13347;50.984;5.822;2022-10-17T13:17:21;167.30;;;159.23;;
24445;SDS011;13347;50.984;5.822;2022-10-17T13:19:51;119.05;;;113.80;;
24445;SDS011;13347;50.984;5.822;2022-10-17T13:22:20;256.27;;;243.82;;
24445;SDS011;13347;50.984;5.822;2022-10-17T13:24:49;149.93;;;143.10;;
24445;SDS011;13347;50.984;5.822;2022-10-17T13:27:23;169.43;;;161.95;;
24445;SDS011;13347;50.984;5.822;2022-10-17T13:29:52;221.02;;;211.02;;
24445;SDS011;13347;50.984;5.822;2022-10-17T13:32:21;156.68;;;149.68;;
24445;SDS011;13347;50.984;5.822;2022-10-17T13:35:05;129.60;;;123.75;;
24445;SDS011;13347;50.984;5.822;2022-10-17T13:54:34;134.32;;;128.10;;
24445;SDS011;13347;50.984;5.822;2022-10-17T23:54:52;246.15;;;234.27;;
24445;SDS011;13347;50.984;5.822;2022-10-17T23:57:19;203.07;;;193.27;;
24445;SDS011;13347;50.984;5.822;2022-10-17T23:59:47;196.18;;;186.43;;
